sensor_id;sensor_type;location;lat;lon;timestamp;pressure;altitude;pressure_sealevel;temperature;humidity
54882;BME280;40775;51.448;4.742;2023-05-23T00:02:03;101886.94;;;16.72;100.00
54882;BME280;40775;51.448;4.742;2023-05-23T00:04:34;101893.16;;;16.76;100.00
54882;BME280;40775;51.448;4.742;2023-05-23T00:07:04;101886.06;;;16.72;100.00
54882;BME280;40775;51.448;4.742;2023-05-23T00:09:31;101890.41;;;16.68;100.00
54882;BME280;40775;51.448;4.742;2023-05-23T00:11:59;101880.81;;;16.78;100.00
54882;BME280;40775;51.448;4.742;2023-05-23T00:14:26;101887.81;;;16.71;100.00
54882;BME280;40775;51.448;4.742;2023-05-23T00:16:53;101889.41;;;16.61;100.00
54882;BME280;40775;51.448;4.742;2023-05-23T00:19:21;101885.16;;;16.71;100.00
54882;BME280;40775;51.448;4.742;2023-05-23T00:21:48;101897.56;;;16.72;100.00
54882;BME280;40775;51.448;4.742;2023-05-23T00:24:15;101896.72;;;16.78;100.00
54882;BME280;40775;51.448;4.742;2023-05-23T00:26:46;101901.75;;;16.58;100.00
54882;BME280;40775;51.448;4.742;2023-05-23T00:29:14;101895.63;;;16.63;100.00
54882;BME280;40775;51.448;4.742;2023-05-23T00:31:43;101901.84;;;16.65;100.00
54882;BME280;40775;51.448;4.742;2023-05-23T00:34:14;101901.75;;;16.58;100.00
54882;BME280;40775;51.448;4.742;2023-05-23T00:36:44;101908.91;;;16.65;100.00
54882;BME280;40775;51.448;4.742;2023-05-23T00:39:13;101915.94;;;16.61;100.00
54882;BME280;40775;51.448;4.742;2023-05-23T00:41:48;101906.94;;;16.49;100.00
54882;BME280;40775;51.448;4.742;2023-05-23T00:44:18;101913.19;;;16.54;100.00
54882;BME280;40775;51.448;4.742;2023-05-23T00:46:50;101907.88;;;16.54;100.00
54882;BME280;40775;51.448;4.742;2023-05-23T00:49:18;101905.16;;;16.48;100.00
54882;BME280;40775;51.448;4.742;2023-05-23T00:51:48;101908.56;;;16.41;100.00
54882;BME280;40775;51.448;4.742;2023-05-23T00:54:22;101907.69;;;16.40;100.00
54882;BME280;40775;51.448;4.742;2023-05-23T00:56:50;101902.47;;;16.45;100.00
54882;BME280;40775;51.448;4.742;2023-05-23T00:59:18;101918.81;;;16.15;100.00
54882;BME280;40775;51.448;4.742;2023-05-23T01:01:48;101912.75;;;16.22;100.00
54882;BME280;40775;51.448;4.742;2023-05-23T01:04:17;101917.31;;;16.32;100.00
54882;BME280;40775;51.448;4.742;2023-05-23T01:06:45;101924.25;;;16.22;100.00
54882;BME280;40775;51.448;4.742;2023-05-23T01:09:16;101932.19;;;16.22;100.00
54882;BME280;40775;51.448;4.742;2023-05-23T01:14:58;101921.78;;;16.37;100.00
54882;BME280;40775;51.448;4.742;2023-05-23T01:20:21;101933.09;;;16.24;100.00
54882;BME280;40775;51.448;4.742;2023-05-23T01:28:45;101944.28;;;16.05;100.00
54882;BME280;40775;51.448;4.742;2023-05-23T01:31:13;101952.31;;;16.11;100.00
54882;BME280;40775;51.448;4.742;2023-05-23T01:33:43;101958.44;;;16.07;100.00
54882;BME280;40775;51.448;4.742;2023-05-23T01:36:12;101956.75;;;16.14;100.00
54882;BME280;40775;51.448;4.742;2023-05-23T01:38:40;101953.06;;;16.02;100.00
54882;BME280;40775;51.448;4.742;2023-05-23T01:41:08;101956.59;;;16.01;100.00
54882;BME280;40775;51.448;4.742;2023-05-23T01:43:36;101958.34;;;16.01;100.00
54882;BME280;40775;51.448;4.742;2023-05-23T01:46:03;101944.16;;;15.96;100.00
54882;BME280;40775;51.448;4.742;2023-05-23T01:48:33;101962.72;;;15.97;100.00
54882;BME280;40775;51.448;4.742;2023-05-23T01:51:01;101969.84;;;16.03;100.00
54882;BME280;40775;51.448;4.742;2023-05-23T01:53:29;101961.81;;;15.97;100.00
54882;BME280;40775;51.448;4.742;2023-05-23T01:55:57;101969.78;;;15.98;100.00
54882;BME280;40775;51.448;4.742;2023-05-23T01:58:29;101968.56;;;15.78;100.00
54882;BME280;40775;51.448;4.742;2023-05-23T02:00:56;101964.47;;;15.97;100.00
54882;BME280;40775;51.448;4.742;2023-05-23T02:03:23;101973.50;;;16.10;100.00
54882;BME280;40775;51.448;4.742;2023-05-23T02:05:51;101970.69;;;15.99;100.00
54882;BME280;40775;51.448;4.742;2023-05-23T02:08:18;101972.22;;;15.86;100.00
54882;BME280;40775;51.448;4.742;2023-05-23T02:10:45;101973.81;;;15.75;100.00
54882;BME280;40775;51.448;4.742;2023-05-23T02:13:12;101979.22;;;15.83;100.00
54882;BME280;40775;51.448;4.742;2023-05-23T02:15:39;101974.09;;;15.90;100.00
54882;BME280;40775;51.448;4.742;2023-05-23T02:18:06;101980.91;;;15.77;100.00
54882;BME280;40775;51.448;4.742;2023-05-23T02:20:33;101991.72;;;15.90;100.00
54882;BME280;40775;51.448;4.742;2023-05-23T02:23:01;101987.34;;;15.92;100.00
54882;BME280;40775;51.448;4.742;2023-05-23T02:25:28;101983.81;;;15.93;100.00
54882;BME280;40775;51.448;4.742;2023-05-23T02:27:55;101982.91;;;15.89;100.00
54882;BME280;40775;51.448;4.742;2023-05-23T02:30:22;101977.66;;;15.94;100.00
54882;BME280;40775;51.448;4.742;2023-05-23T02:32:49;101985.59;;;15.92;100.00
54882;BME280;40775;51.448;4.742;2023-05-23T02:35:17;101991.84;;;15.97;100.00
54882;BME280;40775;51.448;4.742;2023-05-23T02:37:44;101986.53;;;15.96;100.00
54882;BME280;40775;51.448;4.742;2023-05-23T02:40:11;101999.78;;;15.97;100.00
54882;BME280;40775;51.448;4.742;2023-05-23T02:42:38;101987.53;;;16.04;100.00
54882;BME280;40775;51.448;4.742;2023-05-23T02:45:06;101986.47;;;15.93;100.00
54882;BME280;40775;51.448;4.742;2023-05-23T02:47:33;101992.69;;;15.95;100.00
54882;BME280;40775;51.448;4.742;2023-05-23T02:50:00;101992.72;;;15.96;100.00
54882;BME280;40775;51.448;4.742;2023-05-23T02:52:28;101982.94;;;15.92;100.00
54882;BME280;40775;51.448;4.742;2023-05-23T02:54:55;101986.56;;;15.99;100.00
54882;BME280;40775;51.448;4.742;2023-05-23T02:57:22;101983.81;;;15.93;100.00
54882;BME280;40775;51.448;4.742;2023-05-23T02:59:49;101985.59;;;15.94;100.00
54882;BME280;40775;51.448;4.742;2023-05-23T03:02:16;101978.66;;;16.00;100.00
54882;BME280;40775;51.448;4.742;2023-05-23T03:04:43;101972.41;;;15.97;100.00
54882;BME280;40775;51.448;4.742;2023-05-23T03:07:10;101976.78;;;15.93;100.00
54882;BME280;40775;51.448;4.742;2023-05-23T03:09:54;101985.59;;;15.94;100.00
54882;BME280;40775;51.448;4.742;2023-05-23T03:12:21;101979.44;;;15.95;100.00
54882;BME280;40775;51.448;4.742;2023-05-23T03:14:48;101977.63;;;15.91;100.00
54882;BME280;40775;51.448;4.742;2023-05-23T03:17:15;101988.25;;;15.94;100.00
54882;BME280;40775;51.448;4.742;2023-05-23T03:19:43;101982.97;;;15.94;100.00
54882;BME280;40775;51.448;4.742;2023-05-23T03:22:10;101982.06;;;15.93;100.00
54882;BME280;40775;51.448;4.742;2023-05-23T03:24:37;101982.97;;;15.94;100.00
54882;BME280;40775;51.448;4.742;2023-05-23T03:27:04;101987.41;;;15.96;100.00
54882;BME280;40775;51.448;4.742;2023-05-23T03:29:31;101997.06;;;15.93;100.00
54882;BME280;40775;51.448;4.742;2023-05-23T03:31:58;101995.34;;;15.95;100.00
54882;BME280;40775;51.448;4.742;2023-05-23T03:34:26;102001.56;;;15.97;100.00
54882;BME280;40775;51.448;4.742;2023-05-23T03:36:53;101991.00;;;16.00;100.00
54882;BME280;40775;51.448;4.742;2023-05-23T03:39:20;101990.88;;;15.91;100.00
54882;BME280;40775;51.448;4.742;2023-05-23T03:41:47;101995.38;;;15.98;100.00
54882;BME280;40775;51.448;4.742;2023-05-23T03:44:14;101994.50;;;15.97;100.00
54882;BME280;40775;51.448;4.742;2023-05-23T03:46:41;101990.03;;;15.95;100.00
54882;BME280;40775;51.448;4.742;2023-05-23T03:49:09;101996.22;;;15.95;100.00
54882;BME280;40775;51.448;4.742;2023-05-23T03:51:36;101992.75;;;15.99;100.00
54882;BME280;40775;51.448;4.742;2023-05-23T03:54:03;101995.38;;;15.98;100.00
54882;BME280;40775;51.448;4.742;2023-05-23T03:56:30;102003.38;;;16.01;100.00
54882;BME280;40775;51.448;4.742;2023-05-23T03:58:57;102005.00;;;15.91;100.00
54882;BME280;40775;51.448;4.742;2023-05-23T04:01:24;102005.97;;;15.96;100.00
54882;BME280;40775;51.448;4.742;2023-05-23T04:03:52;102012.59;;;15.73;100.00
54882;BME280;40775;51.448;4.742;2023-05-23T04:06:19;102016.53;;;15.95;100.00
54882;BME280;40775;51.448;4.742;2023-05-23T04:08:48;102021.53;;;15.80;100.00
54882;BME280;40775;51.448;4.742;2023-05-23T04:11:15;102022.50;;;15.85;100.00
54882;BME280;40775;51.448;4.742;2023-05-23T04:13:43;102013.72;;;15.87;100.00
54882;BME280;40775;51.448;4.742;2023-05-23T04:16:13;102020.69;;;15.82;100.00
54882;BME280;40775;51.448;4.742;2023-05-23T04:18:40;102019.06;;;15.89;100.00
54882;BME280;40775;51.448;4.742;2023-05-23T04:21:09;102024.22;;;15.81;100.00
54882;BME280;40775;51.448;4.742;2023-05-23T04:23:36;102024.19;;;15.80;100.00
54882;BME280;40775;51.448;4.742;2023-05-23T04:26:04;102025.19;;;15.86;100.00
54882;BME280;40775;51.448;4.742;2023-05-23T04:28:33;102023.31;;;15.81;100.00
54882;BME280;40775;51.448;4.742;2023-05-23T04:31:00;102026.81;;;15.78;100.00
54882;BME280;40775;51.448;4.742;2023-05-23T04:33:29;102025.97;;;15.81;100.00
54882;BME280;40775;51.448;4.742;2023-05-23T04:35:56;102030.28;;;15.74;100.00
54882;BME280;40775;51.448;4.742;2023-05-23T04:38:23;102037.34;;;15.75;100.00
54882;BME280;40775;51.448;4.742;2023-05-23T04:40:50;102030.34;;;15.79;100.00
54882;BME280;40775;51.448;4.742;2023-05-23T04:43:18;102036.56;;;15.81;100.00
54882;BME280;40775;51.448;4.742;2023-05-23T04:45:46;102049.81;;;15.81;100.00
54882;BME280;40775;51.448;4.742;2023-05-23T04:48:15;102051.38;;;15.69;100.00
54882;BME280;40775;51.448;4.742;2023-05-23T04:50:47;102051.38;;;15.69;100.00
54882;BME280;40775;51.448;4.742;2023-05-23T04:53:16;102047.94;;;15.75;100.00
54882;BME280;40775;51.448;4.742;2023-05-23T04:55:44;102056.78;;;15.75;100.00
54882;BME280;40775;51.448;4.742;2023-05-23T04:58:11;102061.13;;;15.72;100.00
54882;BME280;40775;51.448;4.742;2023-05-23T05:00:39;102061.44;;;15.43;100.00
54882;BME280;40775;51.448;4.742;2023-05-23T05:03:06;102074.19;;;15.61;100.00
54882;BME280;40775;51.448;4.742;2023-05-23T05:05:35;102060.75;;;15.55;100.00
54882;BME280;40775;51.448;4.742;2023-05-23T05:08:03;102070.59;;;15.61;100.00
54882;BME280;40775;51.448;4.742;2023-05-23T05:10:30;102074.19;;;15.63;100.00
54882;BME280;40775;51.448;4.742;2023-05-23T05:12:57;102081.81;;;15.49;100.00
54882;BME280;40775;51.448;4.742;2023-05-23T05:15:24;102075.72;;;15.53;100.00
54882;BME280;40775;51.448;4.742;2023-05-23T05:17:51;102073.25;;;15.61;100.00
54882;BME280;40775;51.448;4.742;2023-05-23T05:20:19;102068.88;;;15.61;100.00
54882;BME280;40775;51.448;4.742;2023-05-23T05:22:55;102074.97;;;15.59;100.00
54882;BME280;40775;51.448;4.742;2023-05-23T05:25:23;102081.09;;;15.58;100.00
54882;BME280;40775;51.448;4.742;2023-05-23T05:27:50;102088.09;;;15.54;100.00
54882;BME280;40775;51.448;4.742;2023-05-23T05:30:18;102093.31;;;15.50;100.00
54882;BME280;40775;51.448;4.742;2023-05-23T05:32:45;102092.50;;;15.54;100.00
54882;BME280;40775;51.448;4.742;2023-05-23T05:35:13;102103.69;;;15.39;100.00
54882;BME280;40775;51.448;4.742;2023-05-23T05:37:40;102095.56;;;15.31;100.00
54882;BME280;40775;51.448;4.742;2023-05-23T05:40:08;102092.31;;;15.44;100.00
54882;BME280;40775;51.448;4.742;2023-05-23T05:42:35;102092.38;;;15.48;100.00
54882;BME280;40775;51.448;4.742;2023-05-23T05:45:04;102105.66;;;15.49;100.00
54882;BME280;40775;51.448;4.742;2023-05-23T05:47:31;102110.88;;;16.92;100.00
54882;BME280;40775;51.448;4.742;2023-05-23T05:49:58;102110.41;;;17.95;100.00
54882;BME280;40775;51.448;4.742;2023-05-23T05:52:25;102114.66;;;18.70;100.00
54882;BME280;40775;51.448;4.742;2023-05-23T05:54:52;102114.00;;;19.09;100.00
54882;BME280;40775;51.448;4.742;2023-05-23T05:57:19;102125.25;;;18.64;100.00
54882;BME280;40775;51.448;4.742;2023-05-23T05:59:46;102120.38;;;19.43;100.00
54882;BME280;40775;51.448;4.742;2023-05-23T06:02:14;102124.03;;;19.62;100.00
54882;BME280;40775;51.448;4.742;2023-05-23T06:04:41;102119.06;;;18.65;100.00
54882;BME280;40775;51.448;4.742;2023-05-23T06:07:08;102115.03;;;19.40;100.00
54882;BME280;40775;51.448;4.742;2023-05-23T06:09:35;102124.88;;;19.48;100.00
54882;BME280;40775;51.448;4.742;2023-05-23T06:12:02;102134.84;;;20.06;100.00
54882;BME280;40775;51.448;4.742;2023-05-23T06:14:29;102138.44;;;20.30;100.00
54882;BME280;40775;51.448;4.742;2023-05-23T06:16:57;102121.56;;;20.43;100.00
54882;BME280;40775;51.448;4.742;2023-05-23T06:19:24;102133.09;;;20.53;100.00
54882;BME280;40775;51.448;4.742;2023-05-23T06:21:52;102123.28;;;20.09;100.00
54882;BME280;40775;51.448;4.742;2023-05-23T06:24:19;102128.69;;;20.55;100.00
54882;BME280;40775;51.448;4.742;2023-05-23T06:26:46;102125.13;;;20.65;100.00
54882;BME280;40775;51.448;4.742;2023-05-23T06:29:13;102125.09;;;20.74;100.00
54882;BME280;40775;51.448;4.742;2023-05-23T06:31:40;102125.97;;;20.78;100.00
54882;BME280;40775;51.448;4.742;2023-05-23T06:34:07;102127.78;;;20.82;100.00
54882;BME280;40775;51.448;4.742;2023-05-23T06:36:34;102133.13;;;20.82;100.00
54882;BME280;40775;51.448;4.742;2023-05-23T06:39:01;102126.00;;;20.87;100.00
54882;BME280;40775;51.448;4.742;2023-05-23T06:41:28;102125.09;;;20.88;100.00
54882;BME280;40775;51.448;4.742;2023-05-23T06:43:55;102127.75;;;20.91;100.00
54882;BME280;40775;51.448;4.742;2023-05-23T06:46:22;102147.31;;;20.94;100.00
54882;BME280;40775;51.448;4.742;2023-05-23T06:48:50;102126.84;;;20.95;100.00
54882;BME280;40775;51.448;4.742;2023-05-23T06:51:37;102136.63;;;20.97;100.00
54882;BME280;40775;51.448;4.742;2023-05-23T06:54:04;102143.78;;;20.65;100.00
54882;BME280;40775;51.448;4.742;2023-05-23T06:56:31;102142.88;;;20.95;100.00
54882;BME280;40775;51.448;4.742;2023-05-23T06:58:58;102144.63;;;21.02;100.00
54882;BME280;40775;51.448;4.742;2023-05-23T07:01:26;102142.84;;;21.04;100.00
54882;BME280;40775;51.448;4.742;2023-05-23T07:03:53;102155.34;;;20.47;100.00
54882;BME280;40775;51.448;4.742;2023-05-23T07:06:20;102161.50;;;20.22;100.00
54882;BME280;40775;51.448;4.742;2023-05-23T07:08:47;102160.63;;;20.26;100.00
54882;BME280;40775;51.448;4.742;2023-05-23T07:11:14;102156.75;;;19.32;100.00
54882;BME280;40775;51.448;4.742;2023-05-23T07:13:41;102165.41;;;18.95;100.00
54882;BME280;40775;51.448;4.742;2023-05-23T07:16:08;102167.72;;;20.02;100.00
54882;BME280;40775;51.448;4.742;2023-05-23T07:18:35;102173.16;;;20.63;100.00
54882;BME280;40775;51.448;4.742;2023-05-23T07:21:04;102173.16;;;20.82;100.00
54882;BME280;40775;51.448;4.742;2023-05-23T07:23:32;102172.25;;;20.90;100.00
54882;BME280;40775;51.448;4.742;2023-05-23T07:26:02;102178.47;;;20.95;100.00
54882;BME280;40775;51.448;4.742;2023-05-23T07:28:29;102173.13;;;21.00;100.00
54882;BME280;40775;51.448;4.742;2023-05-23T07:30:56;102177.59;;;20.77;100.00
54882;BME280;40775;51.448;4.742;2023-05-23T07:33:24;102175.69;;;19.96;100.00
54882;BME280;40775;51.448;4.742;2023-05-23T07:35:51;102175.81;;;20.76;100.00
54882;BME280;40775;51.448;4.742;2023-05-23T07:38:18;102181.16;;;20.91;100.00
54882;BME280;40775;51.448;4.742;2023-05-23T07:40:45;102183.81;;;20.97;100.00
54882;BME280;40775;51.448;4.742;2023-05-23T07:43:32;102189.13;;;21.00;100.00
54882;BME280;40775;51.448;4.742;2023-05-23T07:45:59;102182.91;;;21.01;100.00
54882;BME280;40775;51.448;4.742;2023-05-23T07:48:27;102185.56;;;21.03;100.00
54882;BME280;40775;51.448;4.742;2023-05-23T07:50:54;102187.34;;;21.04;100.00
54882;BME280;40775;51.448;4.742;2023-05-23T07:53:21;102192.69;;;21.05;100.00
54882;BME280;40775;51.448;4.742;2023-05-23T07:55:48;102185.56;;;21.04;100.00
54882;BME280;40775;51.448;4.742;2023-05-23T07:58:15;102186.47;;;21.05;100.00
54882;BME280;40775;51.448;4.742;2023-05-23T08:00:44;102198.03;;;21.05;100.00
54882;BME280;40775;51.448;4.742;2023-05-23T08:03:11;102188.25;;;21.04;100.00
54882;BME280;40775;51.448;4.742;2023-05-23T08:05:39;102196.25;;;21.07;100.00
54882;BME280;40775;51.448;4.742;2023-05-23T08:08:06;102188.22;;;21.06;100.00
54882;BME280;40775;51.448;4.742;2023-05-23T08:10:33;102190.06;;;20.85;100.00
54882;BME280;40775;51.448;4.742;2023-05-23T08:13:00;102194.47;;;21.02;100.00
54882;BME280;40775;51.448;4.742;2023-05-23T08:15:32;102201.59;;;21.03;100.00
54882;BME280;40775;51.448;4.742;2023-05-23T08:17:59;102192.72;;;20.93;100.00
54882;BME280;40775;51.448;4.742;2023-05-23T08:20:27;102193.50;;;20.11;100.00
54882;BME280;40775;51.448;4.742;2023-05-23T08:22:59;102193.31;;;19.62;100.00
54882;BME280;40775;51.448;4.742;2023-05-23T08:25:27;102198.97;;;20.57;100.00
54882;BME280;40775;51.448;4.742;2023-05-23T08:27:57;102207.84;;;20.85;100.00
54882;BME280;40775;51.448;4.742;2023-05-23T08:30:25;102209.63;;;20.93;100.00
54882;BME280;40775;51.448;4.742;2023-05-23T08:32:54;102201.63;;;20.95;100.00
54882;BME280;40775;51.448;4.742;2023-05-23T08:35:22;102204.28;;;20.96;100.00
54882;BME280;40775;51.448;4.742;2023-05-23T08:37:50;102207.81;;;20.47;100.00
54882;BME280;40775;51.448;4.742;2023-05-23T08:40:20;102212.31;;;20.84;100.00
54882;BME280;40775;51.448;4.742;2023-05-23T08:42:48;102208.72;;;20.81;100.00
54882;BME280;40775;51.448;4.742;2023-05-23T08:45:17;102204.28;;;20.93;100.00
54882;BME280;40775;51.448;4.742;2023-05-23T08:47:45;102206.06;;;20.97;100.00
54882;BME280;40775;51.448;4.742;2023-05-23T08:50:17;102205.16;;;21.00;100.00
54882;BME280;40775;51.448;4.742;2023-05-23T08:52:57;102205.16;;;20.94;100.00
54882;BME280;40775;51.448;4.742;2023-05-23T08:55:26;102199.84;;;20.70;100.00
54882;BME280;40775;51.448;4.742;2023-05-23T08:57:56;102204.00;;;19.71;100.00
54882;BME280;40775;51.448;4.742;2023-05-23T09:00:26;102207.56;;;19.69;100.00
54882;BME280;40775;51.448;4.742;2023-05-23T09:02:54;102213.59;;;19.43;100.00
54882;BME280;40775;51.448;4.742;2023-05-23T09:05:21;102202.34;;;19.99;100.00
54882;BME280;40775;51.448;4.742;2023-05-23T09:07:49;102208.72;;;20.53;100.00
54882;BME280;40775;51.448;4.742;2023-05-23T09:10:21;102211.41;;;20.62;100.00
54882;BME280;40775;51.448;4.742;2023-05-23T09:12:48;102213.19;;;20.73;100.00
54882;BME280;40775;51.448;4.742;2023-05-23T09:15:16;102212.28;;;20.75;100.00
54882;BME280;40775;51.448;4.742;2023-05-23T09:17:44;102213.19;;;20.89;100.00
54882;BME280;40775;51.448;4.742;2023-05-23T09:20:13;102221.19;;;20.94;100.00
54882;BME280;40775;51.448;4.742;2023-05-23T09:22:47;102210.50;;;20.94;100.00
54882;BME280;40775;51.448;4.742;2023-05-23T09:25:15;102207.78;;;20.39;100.00
54882;BME280;40775;51.448;4.742;2023-05-23T09:27:42;102214.06;;;20.62;100.00
54882;BME280;40775;51.448;4.742;2023-05-23T09:30:14;102219.44;;;20.84;100.00
54882;BME280;40775;51.448;4.742;2023-05-23T09:32:41;102220.31;;;20.93;100.00
54882;BME280;40775;51.448;4.742;2023-05-23T09:35:10;102214.06;;;20.97;100.00
54882;BME280;40775;51.448;4.742;2023-05-23T09:37:44;102216.72;;;20.99;100.00
54882;BME280;40775;51.448;4.742;2023-05-23T09:40:14;102212.28;;;20.98;100.00
54882;BME280;40775;51.448;4.742;2023-05-23T09:42:46;102218.50;;;21.03;100.00
54882;BME280;40775;51.448;4.742;2023-05-23T09:45:15;102214.06;;;21.04;100.00
54882;BME280;40775;51.448;4.742;2023-05-23T09:47:50;102220.28;;;21.04;100.00
54882;BME280;40775;51.448;4.742;2023-05-23T09:50:19;102212.25;;;21.06;100.00
54882;BME280;40775;51.448;4.742;2023-05-23T09:52:46;102224.75;;;20.90;100.00
54882;BME280;40775;51.448;4.742;2023-05-23T09:55:14;102221.19;;;21.00;100.00
54882;BME280;40775;51.448;4.742;2023-05-23T09:57:42;102230.06;;;21.05;100.00
54882;BME280;40775;51.448;4.742;2023-05-23T10:00:11;102231.84;;;21.06;100.00
54882;BME280;40775;51.448;4.742;2023-05-23T10:03:12;102222.09;;;20.64;100.00
54882;BME280;40775;51.448;4.742;2023-05-23T10:05:47;102222.09;;;20.55;100.00
54882;BME280;40775;51.448;4.742;2023-05-23T10:08:32;102213.13;;;20.31;100.00
54882;BME280;40775;51.448;4.742;2023-05-23T10:14:09;102228.31;;;20.99;100.00
54882;BME280;40775;51.448;4.742;2023-05-23T10:17:08;102227.41;;;20.99;100.00
54882;BME280;40775;51.448;4.742;2023-05-23T10:19:47;102231.84;;;21.06;100.00
54882;BME280;40775;51.448;4.742;2023-05-23T10:22:18;102229.19;;;21.08;100.00
54882;BME280;40775;51.448;4.742;2023-05-23T10:24:47;102237.22;;;21.09;100.00
54882;BME280;40775;51.448;4.742;2023-05-23T10:27:14;102242.56;;;21.11;100.00
54882;BME280;40775;51.448;4.742;2023-05-23T10:29:43;102233.66;;;21.10;100.00
54882;BME280;40775;51.448;4.742;2023-05-23T10:32:11;102232.75;;;21.14;100.00
54882;BME280;40775;51.448;4.742;2023-05-23T10:37:33;102230.06;;;21.17;100.00
54882;BME280;40775;51.448;4.742;2023-05-23T10:40:36;102230.06;;;21.17;100.00
54882;BME280;40775;51.448;4.742;2023-05-23T10:43:39;102239.88;;;21.18;100.00
54882;BME280;40775;51.448;4.742;2023-05-23T10:46:08;102238.09;;;21.19;100.00
54882;BME280;40775;51.448;4.742;2023-05-23T10:48:41;102228.28;;;21.19;100.00
54882;BME280;40775;51.448;4.742;2023-05-23T10:51:14;102230.06;;;21.22;100.00
54882;BME280;40775;51.448;4.742;2023-05-23T10:53:44;102230.09;;;21.23;100.00
54882;BME280;40775;51.448;4.742;2023-05-23T10:56:23;102230.09;;;21.16;100.00
54882;BME280;40775;51.448;4.742;2023-05-23T10:58:55;102237.19;;;21.18;100.00
54882;BME280;40775;51.448;4.742;2023-05-23T11:01:26;102230.97;;;21.19;100.00
54882;BME280;40775;51.448;4.742;2023-05-23T11:03:53;102230.09;;;20.96;100.00
54882;BME280;40775;51.448;4.742;2023-05-23T11:06:43;102222.09;;;20.61;99.18
54882;BME280;40775;51.448;4.742;2023-05-23T11:09:18;102221.19;;;21.02;100.00
54882;BME280;40775;51.448;4.742;2023-05-23T11:12:00;102223.84;;;21.14;100.00
54882;BME280;40775;51.448;4.742;2023-05-23T11:17:16;102228.31;;;21.12;100.00
54882;BME280;40775;51.448;4.742;2023-05-23T11:20:08;102228.28;;;21.19;100.00
54882;BME280;40775;51.448;4.742;2023-05-23T11:22:39;102223.84;;;21.21;100.00
54882;BME280;40775;51.448;4.742;2023-05-23T11:25:09;102222.06;;;21.22;100.00
54882;BME280;40775;51.448;4.742;2023-05-23T11:27:38;102235.41;;;21.29;100.00
54882;BME280;40775;51.448;4.742;2023-05-23T11:30:12;102229.19;;;21.23;100.00
54882;BME280;40775;51.448;4.742;2023-05-23T11:32:41;102227.44;;;21.23;100.00
54882;BME280;40775;51.448;4.742;2023-05-23T11:35:09;102238.09;;;21.23;100.00
54882;BME280;40775;51.448;4.742;2023-05-23T11:37:38;102228.31;;;21.28;100.00
54882;BME280;40775;51.448;4.742;2023-05-23T11:40:30;102236.31;;;21.28;100.00
54882;BME280;40775;51.448;4.742;2023-05-23T11:43:05;102230.97;;;21.27;100.00
54882;BME280;40775;51.448;4.742;2023-05-23T11:45:34;102238.09;;;21.31;100.00
54882;BME280;40775;51.448;4.742;2023-05-23T11:48:13;102228.31;;;20.95;100.00
54882;BME280;40775;51.448;4.742;2023-05-23T11:50:51;102239.88;;;21.29;100.00
54882;BME280;40775;51.448;4.742;2023-05-23T11:53:22;102237.19;;;20.60;75.06
54882;BME280;40775;51.448;4.742;2023-05-23T11:55:57;102240.75;;;21.02;100.00
54882;BME280;40775;51.448;4.742;2023-05-23T11:58:29;102235.41;;;20.75;69.63
54882;BME280;40775;51.448;4.742;2023-05-23T12:01:04;102230.06;;;20.53;66.67
54882;BME280;40775;51.448;4.742;2023-05-23T12:03:48;102235.44;;;21.11;100.00
54882;BME280;40775;51.448;4.742;2023-05-23T12:06:18;102223.00;;;20.84;93.53
54882;BME280;40775;51.448;4.742;2023-05-23T12:08:46;102231.88;;;21.15;100.00
54882;BME280;40775;51.448;4.742;2023-05-23T12:11:14;102231.88;;;21.27;100.00
54882;BME280;40775;51.448;4.742;2023-05-23T12:13:41;102238.09;;;21.33;100.00
54882;BME280;40775;51.448;4.742;2023-05-23T12:16:11;102246.09;;;21.33;100.00
54882;BME280;40775;51.448;4.742;2023-05-23T12:18:41;102237.19;;;21.35;100.00
54882;BME280;40775;51.448;4.742;2023-05-23T12:21:08;102241.66;;;21.39;100.00
54882;BME280;40775;51.448;4.742;2023-05-23T12:23:36;102239.00;;;21.38;100.00
54882;BME280;40775;51.448;4.742;2023-05-23T12:26:06;102247.00;;;21.33;100.00
54882;BME280;40775;51.448;4.742;2023-05-23T12:28:36;102240.75;;;21.33;100.00
54882;BME280;40775;51.448;4.742;2023-05-23T12:31:19;102244.31;;;21.33;100.00
54882;BME280;40775;51.448;4.742;2023-05-23T12:33:47;102243.44;;;21.13;100.00
54882;BME280;40775;51.448;4.742;2023-05-23T12:36:22;102255.03;;;21.38;100.00
54882;BME280;40775;51.448;4.742;2023-05-23T12:38:50;102247.00;;;21.39;100.00
54882;BME280;40775;51.448;4.742;2023-05-23T12:41:19;102244.31;;;21.22;100.00
54882;BME280;40775;51.448;4.742;2023-05-23T12:43:51;102261.25;;;21.40;100.00
54882;BME280;40775;51.448;4.742;2023-05-23T12:46:20;102248.78;;;21.13;100.00
54882;BME280;40775;51.448;4.742;2023-05-23T12:48:47;102248.75;;;21.22;87.24
54882;BME280;40775;51.448;4.742;2023-05-23T12:51:15;102255.91;;;21.41;100.00
54882;BME280;40775;51.448;4.742;2023-05-23T12:53:43;102257.69;;;21.42;100.00
54882;BME280;40775;51.448;4.742;2023-05-23T12:56:10;102255.91;;;21.44;100.00
54882;BME280;40775;51.448;4.742;2023-05-23T12:58:37;102257.69;;;21.42;100.00
54882;BME280;40775;51.448;4.742;2023-05-23T13:01:04;102261.22;;;21.44;100.00
54882;BME280;40775;51.448;4.742;2023-05-23T13:03:32;102254.97;;;21.50;100.00
54882;BME280;40775;51.448;4.742;2023-05-23T13:05:59;102241.66;;;21.42;100.00
54882;BME280;40775;51.448;4.742;2023-05-23T13:08:26;102245.19;;;21.52;100.00
54882;BME280;40775;51.448;4.742;2023-05-23T13:10:53;102252.31;;;21.51;100.00
54882;BME280;40775;51.448;4.742;2023-05-23T13:13:20;102250.56;;;21.29;100.00